Time;durP1;ratioP1;P1;durP2;ratioP2;P2;SDS_P1;SDS_P2;PMS_P1;PMS_P2;Temp;Humidity;BMP_temperature;BMP_pressure;BME280_temperature;BME280_humidity;BME280_pressure;Samples;Min_cycle;Max_cycle;Signal;HPM_P1;HPM_P2
2022/04/01 00:00:35;;;;;;;14.80;8.23;;;3.20;74.80;;;;;;5062533;28;20089;-71
2022/04/01 00:03:00;;;;;;;14.18;7.55;;;3.20;75.60;;;;;;5050061;28;20119;-71
2022/04/01 00:05:26;;;;;;;17.77;7.95;;;3.20;74.80;;;;;;5034732;28;20021;-72
2022/04/01 00:07:51;;;;;;;12.85;7.25;;;3.10;74.10;;;;;;5033755;28;20120;-71
2022/04/01 00:10:17;;;;;;;15.55;7.03;;;3.20;74.40;;;;;;5052426;28;20384;-72
2022/04/01 00:12:44;;;;;;;16.30;7.20;;;3.20;74.10;;;;;;5052154;28;20483;-72
2022/04/01 00:15:12;;;;;;;12.77;7.40;;;3.20;73.80;;;;;;5051561;28;20028;-72
2022/04/01 00:17:42;;;;;;;12.63;6.88;;;3.10;73.60;;;;;;5051280;28;20028;-71
2022/04/01 00:20:09;;;;;;;12.70;7.30;;;3.10;73.50;;;;;;5051992;28;20033;-72
2022/04/01 00:22:35;;;;;;;14.23;7.10;;;3.10;73.10;;;;;;5052016;28;20395;-71
2022/04/01 00:25:01;;;;;;;15.63;7.03;;;3.10;72.60;;;;;;5033662;28;20112;-71
2022/04/01 00:27:26;;;;;;;13.40;7.03;;;3.20;73.20;;;;;;5050930;28;20526;-71
2022/04/01 00:29:52;;;;;;;16.88;6.95;;;3.20;71.70;;;;;;5042264;23;20048;-71
2022/04/01 00:32:18;;;;;;;12.43;7.03;;;3.20;72.20;;;;;;5014095;28;20044;-71
2022/04/01 00:34:45;;;;;;;13.55;8.38;;;3.20;72.60;;;;;;5015342;28;20021;-71
2022/04/01 00:37:11;;;;;;;14.65;6.78;;;3.20;71.70;;;;;;5031692;28;20026;-71
2022/04/01 00:39:37;;;;;;;15.82;6.80;;;3.20;71.50;;;;;;5026311;28;20116;-70
2022/04/01 00:42:04;;;;;;;17.67;7.45;;;3.20;72.40;;;;;;5051549;28;20052;-71
2022/04/01 00:44:32;;;;;;;10.55;6.63;;;3.30;72.50;;;;;;5051298;28;20396;-71
2022/04/01 00:47:02;;;;;;;15.18;6.72;;;3.30;71.40;;;;;;5033026;28;20033;-69
2022/04/01 00:49:29;;;;;;;15.32;6.93;;;3.30;71.40;;;;;;5050807;28;20548;-70
2022/04/01 00:52:00;;;;;;;15.88;7.60;;;3.30;71.50;;;;;;5051549;28;20463;-72
2022/04/01 00:54:27;;;;;;;14.63;7.35;;;3.20;71.60;;;;;;5051315;28;20047;-72
2022/04/01 00:56:54;;;;;;;13.70;6.78;;;3.20;71.30;;;;;;5051194;28;20037;-71
2022/04/01 00:59:20;;;;;;;13.27;6.18;;;3.10;71.20;;;;;;5049862;28;20021;-71
2022/04/01 01:01:49;;;;;;;14.27;6.72;;;3.10;71.30;;;;;;5051596;28;20116;-71
2022/04/01 01:04:16;;;;;;;11.77;6.25;;;3.10;71.50;;;;;;5033116;28;20025;-70
2022/04/01 01:06:44;;;;;;;14.65;7.05;;;3.10;71.60;;;;;;5050948;28;20033;-71
2022/04/01 01:09:11;;;;;;;12.98;6.85;;;3.10;71.90;;;;;;5049955;28;20108;-71
2022/04/01 01:11:37;;;;;;;13.32;7.53;;;3.10;71.80;;;;;;5050903;28;20090;-72
2022/04/01 01:14:05;;;;;;;13.25;7.07;;;3.10;71.50;;;;;;5033063;28;20056;-71
2022/04/01 01:16:31;;;;;;;13.48;7.15;;;3.10;71.60;;;;;;5032139;28;20558;-70
2022/04/01 01:19:05;;;;;;;19.08;7.32;;;3.00;71.50;;;;;;5046278;28;20119;-71
2022/04/01 01:21:32;;;;;;;13.73;7.32;;;3.00;71.50;;;;;;5051212;28;20499;-71
2022/04/01 01:24:03;;;;;;;12.05;6.47;;;3.00;71.60;;;;;;5033297;28;20408;-71
2022/04/01 01:26:29;;;;;;;14.15;6.85;;;3.00;72.10;;;;;;5051085;28;20045;-72
2022/04/01 01:28:56;;;;;;;15.00;7.15;;;3.00;71.80;;;;;;5050837;28;20515;-71
2022/04/01 01:31:22;;;;;;;14.65;7.05;;;3.10;72.20;;;;;;5051226;28;20021;-71
2022/04/01 01:33:49;;;;;;;14.40;7.68;;;3.10;72.40;;;;;;5051090;28;20040;-72
2022/04/01 01:36:14;;;;;;;18.85;7.53;;;3.10;72.00;;;;;;5051148;28;20033;-71
2022/04/01 01:38:40;;;;;;;13.70;6.65;;;3.10;72.10;;;;;;5050840;28;20017;-71
2022/04/01 01:41:05;;;;;;;15.63;6.57;;;3.10;71.70;;;;;;5033059;28;20120;-72
2022/04/01 01:43:31;;;;;;;16.80;6.43;;;3.00;71.50;;;;;;5051144;28;20384;-72
2022/04/01 01:45:57;;;;;;;14.63;7.43;;;3.00;71.70;;;;;;5051242;28;20437;-72
2022/04/01 01:48:23;;;;;;;12.68;7.13;;;3.00;71.10;;;;;;5050627;28;20021;-71
2022/04/01 01:56:17;;;;;;;12.27;6.60;;;3.10;70.30;;;;;;5042045;28;20032;-72
2022/04/01 01:58:43;;;;;;;12.77;6.68;;;3.10;70.90;;;;;;5050587;28;20025;-72
2022/04/01 02:01:09;;;;;;;12.13;6.40;;;3.10;70.50;;;;;;5050717;28;20017;-71
2022/04/01 02:03:35;;;;;;;13.70;6.57;;;3.10;70.80;;;;;;5033304;28;20400;-72
2022/04/01 02:06:03;;;;;;;10.20;6.00;;;3.10;71.20;;;;;;5050803;28;20488;-72
2022/04/01 02:08:29;;;;;;;14.27;6.63;;;3.10;70.70;;;;;;5050814;28;20079;-72
2022/04/01 02:10:54;;;;;;;12.50;6.35;;;3.10;70.00;;;;;;5052535;28;20040;-72
2022/04/01 02:13:20;;;;;;;11.43;6.65;;;3.10;69.20;;;;;;5054533;28;20070;-72
2022/04/01 02:15:45;;;;;;;13.23;6.68;;;3.10;69.30;;;;;;5036897;28;20027;-72
2022/04/01 02:18:11;;;;;;;11.73;5.60;;;3.10;68.90;;;;;;5054641;28;20037;-71
2022/04/01 02:20:37;;;;;;;14.63;7.00;;;3.10;68.30;;;;;;5036741;28;20021;-72
2022/04/01 02:23:03;;;;;;;16.20;6.50;;;3.10;68.60;;;;;;5054407;28;20028;-71
2022/04/01 02:25:30;;;;;;;12.07;5.82;;;3.10;68.90;;;;;;5054334;28;20073;-73
2022/04/01 02:27:59;;;;;;;10.82;4.82;;;3.10;68.50;;;;;;5053918;28;20104;-70
2022/04/01 02:30:25;;;;;;;10.88;5.82;;;3.20;67.70;;;;;;5053988;28;20037;-70
2022/04/01 02:32:50;;;;;;;12.27;6.07;;;3.20;67.30;;;;;;5054053;28;20101;-70
2022/04/01 02:35:16;;;;;;;12.80;5.28;;;3.10;67.40;;;;;;5053885;28;20031;-70
2022/04/01 02:37:42;;;;;;;14.05;6.47;;;3.10;67.30;;;;;;5053751;28;20032;-71
2022/04/01 02:40:11;;;;;;;11.65;5.85;;;3.10;67.80;;;;;;5054192;28;20020;-70
2022/04/01 02:42:37;;;;;;;15.23;7.07;;;3.10;67.30;;;;;;5058947;28;20033;-71
2022/04/01 02:45:03;;;;;;;12.43;5.55;;;3.10;67.40;;;;;;5072541;28;20028;-70
2022/04/01 02:47:28;;;;;;;11.55;6.05;;;3.10;67.10;;;;;;5052586;28;20017;-73
2022/04/01 02:49:54;;;;;;;10.27;5.43;;;3.10;67.90;;;;;;5056771;28;20541;-71
2022/04/01 02:52:20;;;;;;;11.45;5.03;;;3.00;67.20;;;;;;5053581;28;20099;-69
2022/04/01 02:54:45;;;;;;;16.17;5.28;;;3.00;66.70;;;;;;5053660;28;20071;-73
2022/04/01 02:57:11;;;;;;;14.57;5.55;;;3.00;65.80;;;;;;5053352;28;20017;-70
2022/04/01 02:59:36;;;;;;;9.40;5.10;;;3.00;66.00;;;;;;5053375;28;20507;-69
2022/04/01 03:02:03;;;;;;;9.77;5.20;;;3.00;63.80;;;;;;5053791;28;20025;-71
2022/04/01 03:04:29;;;;;;;16.80;6.15;;;3.10;64.40;;;;;;5053506;28;20036;-70
2022/04/01 03:06:54;;;;;;;10.15;4.97;;;3.10;64.60;;;;;;5053719;28;20021;-71
2022/04/01 03:09:20;;;;;;;13.65;5.00;;;3.10;64.40;;;;;;5035893;28;20017;-71
2022/04/01 03:11:46;;;;;;;12.35;4.95;;;3.10;63.80;;;;;;5035991;28;20404;-70
2022/04/01 03:14:12;;;;;;;10.10;4.95;;;3.00;62.60;;;;;;5035993;28;20037;-71
2022/04/01 03:16:39;;;;;;;7.95;4.40;;;3.00;62.30;;;;;;5053554;28;20017;-71
2022/04/01 03:19:08;;;;;;;9.50;4.53;;;3.00;61.50;;;;;;5053128;28;20021;-71
2022/04/01 03:21:34;;;;;;;10.07;4.10;;;3.00;58.90;;;;;;5052923;28;20476;-70
2022/04/01 03:24:01;;;;;;;12.25;4.72;;;3.10;57.80;;;;;;5054231;28;20029;-71
2022/04/01 03:26:27;;;;;;;9.15;4.03;;;3.10;58.40;;;;;;5053049;28;20033;-70
2022/04/01 03:28:52;;;;;;;9.57;3.50;;;3.10;58.10;;;;;;5052531;28;20044;-71
2022/04/01 03:31:18;;;;;;;9.70;3.55;;;3.00;57.50;;;;;;5052794;28;20511;-70
2022/04/01 03:33:44;;;;;;;9.90;4.68;;;3.00;57.20;;;;;;5052814;28;20024;-71
2022/04/01 03:36:10;;;;;;;13.98;3.85;;;3.00;56.90;;;;;;5052855;28;20017;-70
2022/04/01 03:38:36;;;;;;;7.95;3.60;;;3.00;56.80;;;;;;5052525;28;20032;-71
2022/04/01 03:41:05;;;;;;;8.10;4.30;;;3.00;56.70;;;;;;5035077;28;20032;-70
2022/04/01 03:43:33;;;;;;;7.25;3.80;;;3.00;57.00;;;;;;5052685;28;20097;-70
2022/04/01 03:45:59;;;;;;;9.38;4.00;;;3.00;56.80;;;;;;5052422;28;20472;-71
2022/04/01 03:48:31;;;;;;;11.05;4.28;;;3.10;57.20;;;;;;5052380;28;20037;-72
2022/04/01 03:50:57;;;;;;;8.93;3.90;;;3.00;56.50;;;;;;5035366;28;20024;-71
2022/04/01 03:53:29;;;;;;;7.20;4.38;;;3.00;57.30;;;;;;5052578;28;20028;-72
2022/04/01 03:55:59;;;;;;;10.77;4.70;;;3.00;57.50;;;;;;5052754;28;20100;-71
2022/04/01 03:58:33;;;;;;;5.93;2.97;;;3.00;57.70;;;;;;5051905;28;20061;-71
2022/04/01 04:01:04;;;;;;;12.43;4.45;;;3.00;58.00;;;;;;5052211;28;20029;-71
2022/04/01 04:03:31;;;;;;;13.57;4.97;;;2.90;58.50;;;;;;5052453;28;20021;-71
2022/04/01 04:05:58;;;;;;;10.85;4.38;;;2.90;59.00;;;;;;5052208;28;20397;-72
2022/04/01 04:08:24;;;;;;;9.90;5.00;;;2.80;59.70;;;;;;5051951;28;20553;-71
2022/04/01 04:10:51;;;;;;;15.68;4.72;;;2.80;60.00;;;;;;5052032;28;20033;-70
2022/04/01 04:13:18;;;;;;;7.65;4.28;;;2.80;60.40;;;;;;5034298;28;20051;-71
2022/04/01 04:16:09;;;;;;;10.02;4.35;;;2.80;60.80;;;;;;5052154;28;20051;-70
2022/04/01 04:18:42;;;;;;;;;;;2.90;61.10;;;;;;5052115;28;20503;-71
2022/04/01 04:21:10;;;;;;;10.95;4.85;;;2.80;60.90;;;;;;5051917;28;19904;-71
2022/04/01 04:23:40;;;;;;;10.65;4.97;;;2.70;60.90;;;;;;5033812;28;20102;-71
2022/04/01 04:26:13;;;;;;;10.77;4.38;;;2.60;61.40;;;;;;5052163;28;20052;-70
2022/04/01 04:28:40;;;;;;;11.90;5.15;;;2.60;61.60;;;;;;5051353;28;20281;-70
2022/04/01 04:31:08;;;;;;;8.23;4.72;;;2.60;61.90;;;;;;5051701;28;20139;-71
2022/04/01 04:33:45;;;;;;;8.75;4.22;;;2.50;62.10;;;;;;5033001;28;20032;-71
2022/04/01 04:36:15;;;;;;;10.27;4.40;;;2.60;62.60;;;;;;5051495;28;20021;-71
2022/04/01 04:38:45;;;;;;;8.45;4.45;;;2.50;62.60;;;;;;5052398;28;20433;-71
2022/04/01 04:41:11;;;;;;;15.97;4.63;;;2.50;62.80;;;;;;5051601;28;20025;-71
2022/04/01 04:43:39;;;;;;;8.43;3.88;;;2.50;63.10;;;;;;5051494;28;20267;-71
2022/04/01 04:46:08;;;;;;;7.88;4.80;;;2.50;63.40;;;;;;5051384;28;20121;-71
2022/04/01 04:48:35;;;;;;;10.80;4.95;;;2.40;63.30;;;;;;5051288;28;20025;-71
2022/04/01 04:51:05;;;;;;;9.32;4.40;;;2.30;63.20;;;;;;5051466;28;20055;-70
2022/04/01 04:53:34;;;;;;;9.82;4.47;;;2.20;64.20;;;;;;5051260;28;20025;-69
2022/04/01 04:56:03;;;;;;;8.85;4.45;;;2.10;64.70;;;;;;5051207;28;20090;-70
2022/04/01 04:58:43;;;;;;;9.10;4.93;;;2.00;66.10;;;;;;5050798;28;20453;-70
2022/04/01 05:01:29;;;;;;;8.63;4.53;;;2.00;67.20;;;;;;5051216;28;20029;-70
2022/04/01 05:04:32;;;;;;;13.13;5.30;;;2.00;67.70;;;;;;5051085;28;20033;-70
2022/04/01 05:07:00;;;;;;;8.02;4.55;;;2.00;68.40;;;;;;5050986;28;20028;-68
2022/04/01 05:09:53;;;;;;;11.15;5.13;;;2.00;68.50;;;;;;5032780;28;20021;-70
2022/04/01 05:12:19;;;;;;;12.95;5.03;;;2.00;69.50;;;;;;5051327;28;20025;-70
2022/04/01 05:15:08;;;;;;;11.88;5.10;;;1.80;70.70;;;;;;5050729;28;20163;-70
2022/04/01 05:17:36;;;;;;;11.63;4.95;;;1.80;72.80;;;;;;5050044;28;20029;-71
2022/04/01 05:20:11;;;;;;;12.07;5.13;;;1.70;73.80;;;;;;5050979;28;20032;-70
2022/04/01 05:22:50;;;;;;;12.88;6.97;;;1.60;75.20;;;;;;5050918;28;20039;-70
2022/04/01 05:25:21;;;;;;;10.93;5.22;;;1.50;75.20;;;;;;5050669;28;20045;-70
2022/04/01 05:27:49;;;;;;;12.25;5.43;;;1.30;76.50;;;;;;5050190;28;20029;-70
2022/04/01 05:30:20;;;;;;;13.07;5.82;;;1.10;76.90;;;;;;5050689;28;20046;-70
2022/04/01 05:33:09;;;;;;;10.15;5.18;;;1.00;77.50;;;;;;5050981;28;20033;-70
2022/04/01 05:35:43;;;;;;;11.70;5.55;;;1.00;78.20;;;;;;5050334;28;20028;-70
2022/04/01 05:38:08;;;;;;;10.98;5.20;;;1.00;78.70;;;;;;5050428;28;20067;-71
2022/04/01 05:40:35;;;;;;;11.20;5.88;;;1.00;80.10;;;;;;5050866;28;20025;-71
2022/04/01 05:43:04;;;;;;;10.68;5.68;;;1.00;79.80;;;;;;5050783;28;20149;-71
2022/04/01 05:45:30;;;;;;;10.73;6.07;;;1.00;79.80;;;;;;5053347;28;20044;-71
2022/04/01 05:47:57;;;;;;;10.93;5.75;;;1.00;80.40;;;;;;5054787;28;20074;-70
2022/04/01 05:50:24;;;;;;;11.38;5.90;;;1.00;80.10;;;;;;5036968;28;20029;-70
2022/04/01 05:52:51;;;;;;;11.98;5.95;;;1.00;80.50;;;;;;5054951;28;20437;-71
2022/04/01 05:55:26;;;;;;;15.40;6.75;;;1.00;81.10;;;;;;5054301;28;20082;-70
2022/04/01 05:57:53;;;;;;;13.65;7.32;;;1.00;81.40;;;;;;5053500;28;20021;-71
2022/04/01 06:00:19;;;;;;;12.40;6.82;;;0.90;81.10;;;;;;5046148;28;20029;-71
2022/04/01 06:02:58;;;;;;;11.82;7.32;;;0.90;81.10;;;;;;5054212;28;20055;-68
2022/04/01 06:05:34;;;;;;;14.43;6.68;;;0.80;82.10;;;;;;5054383;28;20017;-69
2022/04/01 06:08:13;;;;;;;13.80;7.22;;;0.80;82.30;;;;;;5052827;28;20029;-72
2022/04/01 06:10:44;;;;;;;12.77;7.32;;;0.80;83.00;;;;;;5053099;28;20078;-72
2022/04/01 06:13:16;;;;;;;10.07;6.65;;;0.80;82.30;;;;;;5053496;28;20021;-70
2022/04/01 06:16:03;;;;;;;15.55;8.40;;;0.90;83.00;;;;;;5053632;28;20132;-72
2022/04/01 06:18:58;;;;;;;11.60;7.38;;;0.90;83.80;;;;;;5045633;28;20024;-71
2022/04/01 06:21:25;;;;;;;13.18;7.47;;;1.00;83.40;;;;;;5053691;28;20021;-69
2022/04/01 06:24:08;;;;;;;14.38;7.35;;;0.90;82.10;;;;;;5054067;28;20057;-72
2022/04/01 06:26:39;;;;;;;19.42;9.82;;;0.90;82.90;;;;;;5054071;28;20029;-70
2022/04/01 06:29:24;;;;;;;12.38;6.72;;;1.00;83.70;;;;;;5035321;28;20117;-70
2022/04/01 06:32:01;;;;;;;13.13;7.25;;;1.00;83.30;;;;;;5003082;28;20037;-71
2022/04/01 06:34:40;;;;;;;18.27;8.70;;;1.00;82.80;;;;;;5053080;28;20085;-71
2022/04/01 06:37:19;;;;;;;17.40;8.05;;;0.80;82.30;;;;;;5052594;28;20025;-68
2022/04/01 06:40:12;;;;;;;16.88;8.48;;;0.80;83.50;;;;;;5053687;28;20017;-71
2022/04/01 06:42:39;;;;;;;16.95;9.43;;;0.80;83.00;;;;;;5043609;28;20033;-71
2022/04/01 06:45:08;;;;;;;13.73;8.90;;;0.70;83.50;;;;;;5053471;28;20024;-71
2022/04/01 06:47:34;;;;;;;13.20;7.70;;;0.70;82.40;;;;;;5053069;28;20036;-71
2022/04/01 06:50:00;;;;;;;14.65;8.88;;;0.70;82.70;;;;;;5053689;28;20021;-71
2022/04/01 06:52:26;;;;;;;17.38;8.73;;;0.60;82.70;;;;;;5035309;28;20063;-71
2022/04/01 06:54:56;;;;;;;15.18;8.65;;;0.70;82.80;;;;;;5053521;28;20025;-71
2022/04/01 06:57:22;;;;;;;12.00;8.23;;;0.80;82.10;;;;;;5054766;28;20276;-70
2022/04/01 06:59:47;;;;;;;12.43;7.70;;;0.70;81.00;;;;;;5057075;28;20603;-71
2022/04/01 07:02:13;;;;;;;13.23;8.40;;;0.80;81.70;;;;;;5049553;28;20028;-73
2022/04/01 07:04:39;;;;;;;13.32;8.90;;;0.80;81.10;;;;;;5039550;28;20048;-73
2022/04/01 07:07:05;;;;;;;17.55;9.18;;;0.80;81.80;;;;;;5052499;28;20396;-70
2022/04/01 07:09:30;;;;;;;13.98;8.82;;;0.80;80.20;;;;;;5052445;28;20536;-72
2022/04/01 07:12:01;;;;;;;13.52;8.43;;;0.70;80.60;;;;;;5035022;28;20024;-72
2022/04/01 07:14:27;;;;;;;13.07;9.43;;;0.70;81.30;;;;;;5052480;28;20485;-68
2022/04/01 07:16:54;;;;;;;14.48;8.80;;;0.60;81.40;;;;;;5052820;28;20032;-71
2022/04/01 07:19:20;;;;;;;12.93;8.43;;;0.60;81.90;;;;;;5051365;28;20095;-72
2022/04/01 07:21:45;;;;;;;13.02;8.77;;;0.60;81.60;;;;;;5052699;28;20029;-72
2022/04/01 07:24:11;;;;;;;16.60;9.05;;;0.70;81.90;;;;;;5052828;28;20403;-71
2022/04/01 07:26:36;;;;;;;14.30;9.48;;;0.80;81.80;;;;;;5034907;28;20484;-72
2022/04/01 07:29:02;;;;;;;11.50;7.43;;;0.80;82.00;;;;;;5052298;28;20140;-71
2022/04/01 07:34:13;;;;;;;13.18;8.35;;;0.60;80.90;;;;;;5052796;28;20395;-72
2022/04/01 07:36:38;;;;;;;13.68;8.15;;;0.60;81.70;;;;;;5052559;28;20029;-71
2022/04/01 07:39:04;;;;;;;14.70;7.65;;;0.50;82.10;;;;;;5052109;28;20373;-71
2022/04/01 07:41:35;;;;;;;14.85;7.88;;;0.50;82.70;;;;;;5052775;28;20387;-73
2022/04/01 07:44:03;;;;;;;13.43;8.40;;;0.60;82.60;;;;;;5053403;28;20056;-71
2022/04/01 07:46:29;;;;;;;14.82;8.07;;;0.50;82.00;;;;;;5052849;28;20067;-72
2022/04/01 07:48:54;;;;;;;12.07;8.00;;;0.50;82.40;;;;;;5052256;28;20426;-71
2022/04/01 07:51:20;;;;;;;13.07;7.55;;;0.60;82.10;;;;;;5052600;28;20025;-73
2022/04/01 07:53:45;;;;;;;15.07;8.38;;;0.60;81.80;;;;;;5053811;28;20028;-72
2022/04/01 07:56:11;;;;;;;14.52;7.85;;;0.60;81.80;;;;;;5059447;28;20040;-73
2022/04/01 07:58:36;;;;;;;10.60;7.53;;;0.60;81.50;;;;;;5053083;28;20056;-71
2022/04/01 08:01:03;;;;;;;11.23;7.82;;;0.50;81.60;;;;;;5034825;28;20115;-71
2022/04/01 08:03:29;;;;;;;12.70;8.27;;;0.50;81.40;;;;;;5052398;28;20039;-72
2022/04/01 08:05:55;;;;;;;13.50;8.38;;;0.60;81.80;;;;;;5052375;28;20039;-72
2022/04/01 08:08:20;;;;;;;14.65;8.13;;;0.60;82.10;;;;;;5051294;28;20033;-72
2022/04/01 08:10:46;;;;;;;10.80;7.60;;;0.60;82.30;;;;;;5051978;28;20468;-72
2022/04/01 08:13:12;;;;;;;44.13;19.65;;;0.60;81.90;;;;;;5034101;28;20033;-71
2022/04/01 08:15:37;;;;;;;11.25;8.02;;;0.60;82.60;;;;;;5051732;28;20373;-72
2022/04/01 08:18:03;;;;;;;11.32;8.32;;;0.60;81.60;;;;;;5051335;28;20027;-72
2022/04/01 08:20:29;;;;;;;13.57;7.60;;;0.50;81.40;;;;;;5051979;28;20400;-72
2022/04/01 08:22:54;;;;;;;14.07;8.23;;;0.50;81.10;;;;;;5052103;28;20094;-73
2022/04/01 08:25:20;;;;;;;13.55;8.98;;;0.50;81.50;;;;;;5052099;28;20370;-72
2022/04/01 08:27:45;;;;;;;12.60;8.38;;;0.60;81.20;;;;;;5051185;28;20033;-70
2022/04/01 08:30:11;;;;;;;11.13;7.22;;;0.60;80.60;;;;;;5071802;23;20134;-72
2022/04/01 08:32:37;;;;;;;13.55;7.70;;;0.60;81.00;;;;;;5051723;28;20025;-73
2022/04/01 08:35:05;;;;;;;14.13;7.30;;;0.70;80.70;;;;;;5051493;28;20036;-72
2022/04/01 08:37:31;;;;;;;12.65;7.78;;;0.70;80.20;;;;;;5050525;28;20528;-72
2022/04/01 08:39:58;;;;;;;15.05;7.68;;;0.70;81.10;;;;;;5049095;28;20043;-71
2022/04/01 08:42:26;;;;;;;14.27;8.15;;;0.80;81.30;;;;;;5051140;28;20027;-74
2022/04/01 08:44:52;;;;;;;10.93;7.57;;;0.80;81.50;;;;;;5050826;28;20025;-72
2022/04/01 08:47:18;;;;;;;12.45;8.20;;;0.80;82.00;;;;;;5032154;28;20021;-72
2022/04/01 08:49:43;;;;;;;16.70;9.02;;;0.70;82.50;;;;;;5051145;28;20021;-72
2022/04/01 08:52:09;;;;;;;16.48;10.75;;;0.80;82.60;;;;;;5033917;28;20036;-72
2022/04/01 08:54:35;;;;;;;17.17;10.15;;;0.60;83.10;;;;;;5051977;28;20033;-73
2022/04/01 08:57:01;;;;;;;19.75;12.07;;;0.60;83.90;;;;;;5051362;28;20029;-72
2022/04/01 08:59:31;;;;;;;19.70;12.23;;;0.60;84.00;;;;;;5033396;28;20025;-73
2022/04/01 09:02:08;;;;;;;19.50;12.43;;;0.60;84.30;;;;;;5053007;28;20021;-73
2022/04/01 09:04:33;;;;;;;23.98;13.30;;;0.60;84.40;;;;;;5046745;28;20041;-72
2022/04/01 09:07:16;;;;;;;19.95;14.55;;;0.50;84.30;;;;;;5035194;28;20396;-71
2022/04/01 09:09:42;;;;;;;22.42;13.18;;;0.40;83.60;;;;;;5053390;28;20044;-73
2022/04/01 09:12:14;;;;;;;21.30;14.20;;;0.60;84.30;;;;;;5048749;28;20108;-74
2022/04/01 09:14:52;;;;;;;15.38;11.70;;;0.70;84.30;;;;;;5054241;28;20029;-74
2022/04/01 09:17:17;;;;;;;24.20;11.90;;;0.90;82.90;;;;;;5053656;28;20020;-72
2022/04/01 09:19:43;;;;;;;17.80;12.05;;;1.00;82.30;;;;;;5057322;28;20025;-73
2022/04/01 09:22:19;;;;;;;17.13;11.07;;;0.90;82.30;;;;;;5099877;23;20032;-71
2022/04/01 09:25:21;;;;;;;16.58;10.45;;;1.00;82.50;;;;;;5009594;28;20057;-69
2022/04/01 09:27:48;;;;;;;15.88;10.25;;;1.20;81.80;;;;;;4918696;29;20061;-73
2022/04/01 09:30:18;;;;;;;16.00;9.13;;;1.30;81.20;;;;;;4959430;28;20076;-70
2022/04/01 09:32:49;;;;;;;13.05;9.25;;;1.30;80.40;;;;;;4992188;28;20482;-68
2022/04/01 09:35:16;;;;;;;20.27;8.68;;;1.20;79.60;;;;;;4978767;28;20027;-71
2022/04/01 09:37:46;;;;;;;14.07;9.20;;;1.10;80.60;;;;;;4961100;28;20406;-69
2022/04/01 09:40:14;;;;;;;15.63;9.80;;;1.10;80.00;;;;;;4961308;28;20019;-70
2022/04/01 09:42:45;;;;;;;15.77;9.15;;;1.20;80.80;;;;;;4961318;28;20022;-69
2022/04/01 09:45:35;;;;;;;15.38;8.45;;;1.30;80.00;;;;;;4978658;28;20479;-69
2022/04/01 09:48:09;;;;;;;16.13;8.48;;;1.40;80.90;;;;;;4976321;28;20161;-69
2022/04/01 09:50:40;;;;;;;15.70;7.72;;;1.60;80.30;;;;;;4966507;28;20027;-69
2022/04/01 09:53:16;;;;;;;;;;;1.40;77.00;;;;;;4977786;28;20034;-69
2022/04/01 09:55:44;;;;;;;15.98;8.20;;;1.40;77.00;;;;;;4972423;28;19934;-68
2022/04/01 09:58:12;;;;;;;13.55;8.25;;;1.40;77.80;;;;;;4977287;28;20019;-69
2022/04/01 10:00:40;;;;;;;11.90;7.22;;;1.60;77.10;;;;;;4978665;28;20512;-69
2022/04/01 10:03:06;;;;;;;12.60;7.20;;;1.80;78.50;;;;;;4978539;28;20114;-72
2022/04/01 10:05:36;;;;;;;15.88;7.75;;;2.00;75.00;;;;;;4978483;28;20110;-70
2022/04/01 10:08:05;;;;;;;11.70;7.80;;;2.00;76.30;;;;;;4977857;28;20033;-71
2022/04/01 10:10:34;;;;;;;13.07;7.95;;;2.20;73.90;;;;;;4978177;28;20559;-71
2022/04/01 10:13:06;;;;;;;12.00;7.10;;;2.30;75.40;;;;;;4978408;28;20031;-71
2022/04/01 10:15:32;;;;;;;13.85;7.03;;;2.50;71.80;;;;;;4978239;28;20026;-69
2022/04/01 10:18:00;;;;;;;19.30;7.97;;;2.40;72.40;;;;;;4978169;28;20023;-69
2022/04/01 10:20:33;;;;;;;12.68;7.15;;;2.30;71.80;;;;;;4978240;28;20114;-70
2022/04/01 10:23:04;;;;;;;12.55;7.95;;;2.10;71.80;;;;;;4960824;28;20031;-70
2022/04/01 10:25:57;;;;;;;15.82;8.30;;;2.10;72.20;;;;;;4978554;28;20025;-69
2022/04/01 10:28:23;;;;;;;15.48;6.88;;;2.20;71.80;;;;;;4968479;28;20122;-69
2022/04/01 10:30:57;;;;;;;17.75;7.30;;;2.20;72.00;;;;;;4959568;28;20130;-69
2022/04/01 10:33:36;;;;;;;13.80;7.85;;;2.10;71.60;;;;;;4974969;28;20077;-71
2022/04/01 10:36:26;;;;;;;8.82;5.60;;;2.00;73.10;;;;;;4957727;28;20023;-70
2022/04/01 10:39:07;;;;;;;12.30;7.45;;;1.90;73.20;;;;;;4975451;28;20026;-69
2022/04/01 10:41:33;;;;;;;11.90;6.85;;;2.00;73.20;;;;;;4957660;28;20025;-69
2022/04/01 10:44:01;;;;;;;11.93;6.03;;;2.10;73.20;;;;;;4975098;28;20046;-70
2022/04/01 10:46:27;;;;;;;11.00;6.00;;;2.20;71.50;;;;;;4957379;28;20391;-69
2022/04/01 10:52:21;;;;;;;12.25;6.28;;;2.50;70.10;;;;;;4974757;28;20116;-69
2022/04/01 10:55:12;;;;;;;12.32;5.75;;;2.70;69.90;;;;;;4963157;28;20121;-69
2022/04/01 10:57:44;;;;;;;10.27;6.15;;;2.60;68.10;;;;;;4974580;28;20054;-70
2022/04/01 11:00:15;;;;;;;13.02;6.05;;;2.70;68.00;;;;;;4975170;28;20081;-70
2022/04/01 11:02:45;;;;;;;;;;;2.50;69.50;;;;;;4975286;28;20105;-69
2022/04/01 11:05:31;;;;;;;10.88;6.40;;;2.50;69.10;;;;;;4974674;28;19906;-72
2022/04/01 11:08:19;;;;;;;13.55;8.15;;;2.60;69.60;;;;;;4974197;28;20106;-70
2022/04/01 11:11:08;;;;;;;13.32;8.25;;;2.50;70.70;;;;;;4974554;28;20406;-70
2022/04/01 11:13:36;;;;;;;15.20;8.25;;;2.10;72.90;;;;;;4974366;28;20026;-69
2022/04/01 11:16:20;;;;;;;14.35;8.35;;;1.90;75.50;;;;;;4974658;28;20059;-70
2022/04/01 11:19:28;;;;;;;16.13;8.88;;;1.80;75.80;;;;;;4973964;28;20498;-69
2022/04/01 11:21:54;;;;;;;13.73;7.78;;;1.70;76.30;;;;;;4895695;29;20448;-69
2022/04/01 11:24:38;;;;;;;12.10;8.25;;;1.70;76.40;;;;;;4960325;28;20046;-69
2022/04/01 11:27:22;;;;;;;13.57;8.43;;;1.70;76.20;;;;;;4973233;28;20026;-68
2022/04/01 11:30:14;;;;;;;17.58;8.35;;;1.70;77.20;;;;;;4955799;28;20027;-68
2022/04/01 11:32:44;;;;;;;12.60;7.60;;;1.70;75.10;;;;;;4968042;28;20052;-68
2022/04/01 11:35:12;;;;;;;9.57;5.82;;;1.70;75.20;;;;;;4955483;28;20023;-68
2022/04/01 11:37:40;;;;;;;11.65;7.30;;;1.80;74.00;;;;;;4972519;28;20509;-69
2022/04/01 11:40:07;;;;;;;13.57;7.82;;;1.90;74.20;;;;;;4972904;28;20026;-69
2022/04/01 11:42:33;;;;;;;12.07;6.88;;;2.00;74.30;;;;;;4972533;28;20023;-69
2022/04/01 11:44:59;;;;;;;12.43;6.80;;;2.00;72.60;;;;;;4972904;28;20506;-68
2022/04/01 11:47:34;;;;;;;9.98;6.10;;;1.90;72.60;;;;;;4972633;28;20027;-68
2022/04/01 11:50:10;;;;;;;13.82;6.68;;;1.90;71.90;;;;;;4972712;28;20026;-68
2022/04/01 11:52:45;;;;;;;12.98;7.00;;;1.90;71.70;;;;;;4972886;28;20034;-69
2022/04/01 11:55:21;;;;;;;13.50;6.30;;;1.90;72.00;;;;;;4972701;28;20398;-69
2022/04/01 11:57:50;;;;;;;10.40;6.03;;;2.00;71.00;;;;;;4972376;28;20359;-69
2022/04/01 12:00:21;;;;;;;9.98;5.43;;;2.00;70.50;;;;;;4967561;28;20491;-71
2022/04/01 12:02:49;;;;;;;16.23;6.32;;;2.20;70.40;;;;;;4985877;28;20169;-72
2022/04/01 12:05:15;;;;;;;9.73;5.38;;;2.40;68.90;;;;;;4974688;28;20034;-72
2022/04/01 12:10:28;;;;;;;18.73;7.97;;;2.50;68.90;;;;;;4964043;28;20349;-72
2022/04/01 12:13:09;;;;;;;9.82;5.15;;;2.60;68.00;;;;;;4972568;28;20351;-69
2022/04/01 12:15:40;;;;;;;18.52;6.53;;;2.60;66.30;;;;;;4956272;28;20398;-70
2022/04/01 12:18:10;;;;;;;11.15;5.47;;;2.70;66.80;;;;;;4953944;28;20031;-70
2022/04/01 12:20:39;;;;;;;12.43;5.85;;;2.80;65.80;;;;;;4972233;28;20447;-70
2022/04/01 12:24:44;;;;;;;8.98;4.90;;;2.80;64.30;;;;;;5115022;27;1221534;-70
2022/04/01 12:27:12;;;;;;;15.05;5.20;;;3.00;64.10;;;;;;5127504;28;20023;-70
2022/04/01 12:29:37;;;;;;;9.80;5.45;;;3.10;63.10;;;;;;5125168;28;20024;-70
2022/04/01 12:32:07;;;;;;;15.27;6.43;;;3.10;61.40;;;;;;5107412;28;20402;-69
2022/04/01 12:34:32;;;;;;;17.40;5.25;;;3.20;61.60;;;;;;5097634;28;20039;-70
2022/04/01 12:37:06;;;;;;;9.55;5.00;;;3.30;60.90;;;;;;5108500;28;20028;-68
2022/04/01 12:39:34;;;;;;;8.73;4.70;;;3.30;60.20;;;;;;5104853;28;20017;-68
2022/04/01 12:42:10;;;;;;;7.90;5.00;;;3.20;59.40;;;;;;5088671;28;20020;-68
2022/04/01 12:44:44;;;;;;;19.00;10.05;;;3.20;59.20;;;;;;5090544;28;20036;-70
2022/04/01 12:47:10;;;;;;;9.30;5.20;;;3.20;60.00;;;;;;5097672;28;20020;-69
2022/04/01 12:49:39;;;;;;;16.95;7.97;;;3.30;59.10;;;;;;5102612;28;20035;-67
2022/04/01 12:52:13;;;;;;;17.50;8.35;;;3.50;60.00;;;;;;5106583;28;20149;-66
2022/04/01 12:54:48;;;;;;;37.33;15.80;;;3.80;58.80;;;;;;5106067;28;20377;-67
2022/04/01 12:57:19;;;;;;;9.77;4.88;;;4.00;58.30;;;;;;5107785;28;20031;-68
2022/04/01 12:59:45;;;;;;;18.27;7.97;;;4.10;57.90;;;;;;5107214;28;20023;-68
2022/04/01 13:02:19;;;;;;;7.70;4.65;;;4.30;57.70;;;;;;5107145;28;20115;-69
2022/04/01 13:04:49;;;;;;;16.58;4.82;;;4.40;55.60;;;;;;5107487;28;20024;-69
2022/04/01 13:07:22;;;;;;;11.93;5.20;;;4.40;55.80;;;;;;5105939;28;20031;-69
2022/04/01 13:09:57;;;;;;;11.82;6.68;;;4.40;55.30;;;;;;5106514;28;20077;-68
2022/04/01 13:12:35;;;;;;;10.45;5.25;;;4.50;56.20;;;;;;5107375;28;20024;-68
2022/04/01 13:15:08;;;;;;;8.88;4.43;;;4.50;55.50;;;;;;5107979;28;20103;-68
2022/04/01 13:17:49;;;;;;;10.85;4.57;;;4.30;54.80;;;;;;5107710;28;20354;-69